<?xml version="1.0" encoding="utf-8"?>
<gpx xmlns:xsi="http://www.w3.org/2001/XMLSchema-instance" xmlns:xsd="http://www.w3.org/2001/XMLSchema" version="1.1" creator="Shapelink.com" xmlns="http://www.topografix.com/GPX/1/1" xmlns:gpxtpx="http://www.garmin.com/xmlschemas/TrackPointExtension/v1">
  <metadata>
    <name>Promenad 3.86 km, 2017-03-24</name>
    <desc></desc>
    <author><name>Morten Hedlund</name></author> 
    <time>2017-03-24T12:15:53Z</time>
  </metadata>
  <trk>
    <name>Promenad 3.86 km, 2017-03-24</name>
    <trkseg>
      <trkpt lat="27.764021493476" lon="-15.592108867325">
        <ele>32.2</ele>
        <time>2017-03-24T12:15:53Z</time>
      </trkpt>
      <trkpt lat="27.763930801318" lon="-15.592279606628">
        <ele>31.8</ele>
        <time>2017-03-24T12:16:18Z</time>
      </trkpt>
      <trkpt lat="27.757129476201" lon="-15.569716286199">
        <ele>20</ele>
        <time>2017-03-24T13:02:28Z</time>
      </trkpt>
      <trkpt lat="27.757003663882" lon="-15.569528112544">
        <ele>41.8</ele>
        <time>2017-03-24T13:02:47Z</time>
      </trkpt>
      <trkpt lat="27.756320036118" lon="-15.569210187077">
        <ele>48.4</ele>
        <time>2017-03-24T13:03:50Z</time>
      </trkpt>
      <trkpt lat="27.755978976607" lon="-15.568486326193">
        <ele>36.2</ele>
        <time>2017-03-24T13:04:57Z</time>
      </trkpt>
      <trkpt lat="27.756021137564" lon="-15.568104698286">
        <ele>29</ele>
        <time>2017-03-24T13:05:28Z</time>
      </trkpt>
      <trkpt lat="27.755912340502" lon="-15.568255488667">
        <ele>18.8</ele>
        <time>2017-03-24T13:06:44Z</time>
      </trkpt>
      <trkpt lat="27.755866323871" lon="-15.568450284023">
        <ele>17.4</ele>
        <time>2017-03-24T13:07:01Z</time>
      </trkpt>
      <trkpt lat="27.755937821478" lon="-15.568645414655">
        <ele>16.6</ele>
        <time>2017-03-24T13:07:16Z</time>
      </trkpt>
      <trkpt lat="27.756031363482" lon="-15.56882688279">
        <ele>15.8</ele>
        <time>2017-03-24T13:07:31Z</time>
      </trkpt>
      <trkpt lat="27.756108812238" lon="-15.569019247395">
        <ele>14.2</ele>
        <time>2017-03-24T13:07:45Z</time>
      </trkpt>
      <trkpt lat="27.756208808305" lon="-15.569190405793">
        <ele>13.6</ele>
        <time>2017-03-24T13:07:58Z</time>
      </trkpt>
      <trkpt lat="27.756341745239" lon="-15.569331724627">
        <ele>12.6</ele>
        <time>2017-03-24T13:08:13Z</time>
      </trkpt>
      <trkpt lat="27.756514412379" lon="-15.569419147844">
        <ele>8.6</ele>
        <time>2017-03-24T13:08:29Z</time>
      </trkpt>
      <trkpt lat="27.756680541637" lon="-15.569512438391">
        <ele>13.6</ele>
        <time>2017-03-24T13:08:43Z</time>
      </trkpt>
      <trkpt lat="27.756852538225" lon="-15.569591731165">
        <ele>21.2</ele>
        <time>2017-03-24T13:08:59Z</time>
      </trkpt>
      <trkpt lat="27.756965777694" lon="-15.569740258433">
        <ele>26.4</ele>
        <time>2017-03-24T13:09:16Z</time>
      </trkpt>
      <trkpt lat="27.756906098566" lon="-15.570572245827">
        <ele>21</ele>
        <time>2017-03-24T13:10:23Z</time>
      </trkpt>
      <trkpt lat="27.757120507568" lon="-15.570900900126">
        <ele>21</ele>
        <time>2017-03-24T13:10:52Z</time>
      </trkpt>
      <trkpt lat="27.75726702318" lon="-15.571027047721">
        <ele>26.4</ele>
        <time>2017-03-24T13:11:06Z</time>
      </trkpt>
      <trkpt lat="27.757422675063" lon="-15.571151602755">
        <ele>35.8</ele>
        <time>2017-03-24T13:11:23Z</time>
      </trkpt>
      <trkpt lat="27.757588385226" lon="-15.571250592994">
        <ele>38.4</ele>
        <time>2017-03-24T13:11:38Z</time>
      </trkpt>
      <trkpt lat="27.757627863975" lon="-15.571265931871">
        <ele>38.4</ele>
        <time>2017-03-24T13:11:42Z</time>
      </trkpt>
      <trkpt lat="27.757752921923" lon="-15.572237226443">
        <ele>25.4</ele>
        <time>2017-03-24T13:13:09Z</time>
      </trkpt>
      <trkpt lat="27.757909328177" lon="-15.572353818672">
        <ele>30.4</ele>
        <time>2017-03-24T13:13:26Z</time>
      </trkpt>
      <trkpt lat="27.758269079325" lon="-15.57241182142">
        <ele>37.6</ele>
        <time>2017-03-24T13:14:02Z</time>
      </trkpt>
      <trkpt lat="27.758391287427" lon="-15.572556241557">
        <ele>39.8</ele>
        <time>2017-03-24T13:14:19Z</time>
      </trkpt>
      <trkpt lat="27.758375613274" lon="-15.572754138216">
        <ele>43.8</ele>
        <time>2017-03-24T13:14:37Z</time>
      </trkpt>
      <trkpt lat="27.758289531161" lon="-15.572943736794">
        <ele>42.6</ele>
        <time>2017-03-24T13:14:55Z</time>
      </trkpt>
      <trkpt lat="27.758262122348" lon="-15.573404741294">
        <ele>42.8</ele>
        <time>2017-03-24T13:15:34Z</time>
      </trkpt>
      <trkpt lat="27.758367147555" lon="-15.573578414262">
        <ele>43.4</ele>
        <time>2017-03-24T13:15:49Z</time>
      </trkpt>
      <trkpt lat="27.758521542153" lon="-15.573689306799">
        <ele>41.8</ele>
        <time>2017-03-24T13:16:03Z</time>
      </trkpt>
      <trkpt lat="27.758678367502" lon="-15.573798606775">
        <ele>39.4</ele>
        <time>2017-03-24T13:16:16Z</time>
      </trkpt>
      <trkpt lat="27.758802754898" lon="-15.573964736033">
        <ele>38.6</ele>
        <time>2017-03-24T13:16:30Z</time>
      </trkpt>
      <trkpt lat="27.758906858096" lon="-15.57414603653">
        <ele>41.2</ele>
        <time>2017-03-24T13:16:44Z</time>
      </trkpt>
      <trkpt lat="27.759015068425" lon="-15.574324654819">
        <ele>46.8</ele>
        <time>2017-03-24T13:16:58Z</time>
      </trkpt>
      <trkpt lat="27.759053373708" lon="-15.574511822646">
        <ele>54</ele>
        <time>2017-03-24T13:17:15Z</time>
      </trkpt>
      <trkpt lat="27.759011631846" lon="-15.574548786825">
        <ele>56.8</ele>
        <time>2017-03-24T13:17:21Z</time>
      </trkpt>
      <trkpt lat="27.759133169396" lon="-15.574689435107">
        <ele>62.6</ele>
        <time>2017-03-24T13:17:39Z</time>
      </trkpt>
      <trkpt lat="27.759258814077" lon="-15.574838968203">
        <ele>65</ele>
        <time>2017-03-24T13:17:55Z</time>
      </trkpt>
      <trkpt lat="27.759339615593" lon="-15.575035104663">
        <ele>61.6</ele>
        <time>2017-03-24T13:18:09Z</time>
      </trkpt>
      <trkpt lat="27.759405078232" lon="-15.575231660218">
        <ele>57.6</ele>
        <time>2017-03-24T13:18:23Z</time>
      </trkpt>
      <trkpt lat="27.759451262501" lon="-15.575434418379">
        <ele>63.4</ele>
        <time>2017-03-24T13:18:37Z</time>
      </trkpt>
      <trkpt lat="27.759472803984" lon="-15.57564723482">
        <ele>64.8</ele>
        <time>2017-03-24T13:18:52Z</time>
      </trkpt>
      <trkpt lat="27.759489400146" lon="-15.576052667323">
        <ele>59.6</ele>
        <time>2017-03-24T13:19:19Z</time>
      </trkpt>
      <trkpt lat="27.759576823363" lon="-15.576244780471">
        <ele>55.2</ele>
        <time>2017-03-24T13:19:32Z</time>
      </trkpt>
      <trkpt lat="27.759627785315" lon="-15.576882559242">
        <ele>44.2</ele>
        <time>2017-03-24T13:20:13Z</time>
      </trkpt>
      <trkpt lat="27.759637005405" lon="-15.577096213873">
        <ele>48</ele>
        <time>2017-03-24T13:20:28Z</time>
      </trkpt>
      <trkpt lat="27.759662821657" lon="-15.577306515744">
        <ele>55</ele>
        <time>2017-03-24T13:20:43Z</time>
      </trkpt>
      <trkpt lat="27.759665755322" lon="-15.577515811787">
        <ele>56.8</ele>
        <time>2017-03-24T13:20:57Z</time>
      </trkpt>
      <trkpt lat="27.759679166362" lon="-15.577721000699">
        <ele>63</ele>
        <time>2017-03-24T13:21:12Z</time>
      </trkpt>
      <trkpt lat="27.759681680932" lon="-15.577930632018">
        <ele>56.6</ele>
        <time>2017-03-24T13:21:28Z</time>
      </trkpt>
      <trkpt lat="27.759709005926" lon="-15.578136742939">
        <ele>59.6</ele>
        <time>2017-03-24T13:21:42Z</time>
      </trkpt>
      <trkpt lat="27.759722584604" lon="-15.578346625715">
        <ele>67.2</ele>
        <time>2017-03-24T13:21:57Z</time>
      </trkpt>
      <trkpt lat="27.759731720875" lon="-15.578554161559">
        <ele>68.4</ele>
        <time>2017-03-24T13:22:11Z</time>
      </trkpt>
      <trkpt lat="27.759685871882" lon="-15.57865968968">
        <ele>71.2</ele>
        <time>2017-03-24T13:22:21Z</time>
      </trkpt>
      <trkpt lat="27.759451933053" lon="-15.579046346727">
        <ele>68.8</ele>
        <time>2017-03-24T13:23:06Z</time>
      </trkpt>
      <trkpt lat="27.75968017219" lon="-15.579349268593">
        <ele>56</ele>
        <time>2017-03-24T13:24:37Z</time>
      </trkpt>
      <trkpt lat="27.759741527698" lon="-15.579533754212">
        <ele>50.8</ele>
        <time>2017-03-24T13:24:53Z</time>
      </trkpt>
      <trkpt lat="27.759746808295" lon="-15.579737853477">
        <ele>54</ele>
        <time>2017-03-24T13:25:08Z</time>
      </trkpt>
      <trkpt lat="27.759735995644" lon="-15.579946227511">
        <ele>56.4</ele>
        <time>2017-03-24T13:25:22Z</time>
      </trkpt>
      <trkpt lat="27.759723087518" lon="-15.5801499915">
        <ele>54.4</ele>
        <time>2017-03-24T13:25:36Z</time>
      </trkpt>
      <trkpt lat="27.759688051176" lon="-15.580364316683">
        <ele>49.8</ele>
        <time>2017-03-24T13:25:50Z</time>
      </trkpt>
      <trkpt lat="27.75966424658" lon="-15.580566152835">
        <ele>45.2</ele>
        <time>2017-03-24T13:26:03Z</time>
      </trkpt>
      <trkpt lat="27.759650500264" lon="-15.580772850489">
        <ele>43.8</ele>
        <time>2017-03-24T13:26:18Z</time>
      </trkpt>
      <trkpt lat="27.759622169442" lon="-15.580986253663">
        <ele>45</ele>
        <time>2017-03-24T13:26:32Z</time>
      </trkpt>
      <trkpt lat="27.759596520828" lon="-15.581192196946">
        <ele>44.6</ele>
        <time>2017-03-24T13:26:45Z</time>
      </trkpt>
      <trkpt lat="27.759563244685" lon="-15.581399397514">
        <ele>45</ele>
        <time>2017-03-24T13:26:59Z</time>
      </trkpt>
      <trkpt lat="27.759514797303" lon="-15.581594276689">
        <ele>43.8</ele>
        <time>2017-03-24T13:27:12Z</time>
      </trkpt>
      <trkpt lat="27.759499206969" lon="-15.58181296046">
        <ele>46.6</ele>
        <time>2017-03-24T13:27:26Z</time>
      </trkpt>
      <trkpt lat="27.759445981904" lon="-15.582008174911">
        <ele>47</ele>
        <time>2017-03-24T13:27:39Z</time>
      </trkpt>
      <trkpt lat="27.759402982757" lon="-15.58221026252">
        <ele>44.6</ele>
        <time>2017-03-24T13:27:54Z</time>
      </trkpt>
      <trkpt lat="27.75935495447" lon="-15.582416624898">
        <ele>41.8</ele>
        <time>2017-03-24T13:28:08Z</time>
      </trkpt>
      <trkpt lat="27.759301645586" lon="-15.58261091734">
        <ele>40.4</ele>
        <time>2017-03-24T13:28:22Z</time>
      </trkpt>
      <trkpt lat="27.759253198204" lon="-15.582808059628">
        <ele>39.4</ele>
        <time>2017-03-24T13:28:37Z</time>
      </trkpt>
      <trkpt lat="27.759170385032" lon="-15.58297552999">
        <ele>46</ele>
        <time>2017-03-24T13:28:54Z</time>
      </trkpt>
      <trkpt lat="27.759029066198" lon="-15.583102515775">
        <ele>50.8</ele>
        <time>2017-03-24T13:29:07Z</time>
      </trkpt>
      <trkpt lat="27.758979612988" lon="-15.583299155149">
        <ele>47.4</ele>
        <time>2017-03-24T13:29:21Z</time>
      </trkpt>
      <trkpt lat="27.759039124478" lon="-15.583493699048">
        <ele>48.4</ele>
        <time>2017-03-24T13:29:35Z</time>
      </trkpt>
      <trkpt lat="27.759058151391" lon="-15.584027793716">
        <ele>55.8</ele>
        <time>2017-03-24T13:30:13Z</time>
      </trkpt>
      <trkpt lat="27.75915043611" lon="-15.584199538847">
        <ele>61.6</ele>
        <time>2017-03-24T13:30:28Z</time>
      </trkpt>
      <trkpt lat="27.759278176266" lon="-15.584361141879">
        <ele>62.4</ele>
        <time>2017-03-24T13:30:41Z</time>
      </trkpt>
      <trkpt lat="27.759395355228" lon="-15.584528863698">
        <ele>59.4</ele>
        <time>2017-03-24T13:30:55Z</time>
      </trkpt>
      <trkpt lat="27.759514964941" lon="-15.58469633406">
        <ele>56.6</ele>
        <time>2017-03-24T13:31:09Z</time>
      </trkpt>
      <trkpt lat="27.75964245364" lon="-15.584861373671">
        <ele>52.4</ele>
        <time>2017-03-24T13:31:23Z</time>
      </trkpt>
      <trkpt lat="27.759731720875" lon="-15.585049128231">
        <ele>48.8</ele>
        <time>2017-03-24T13:31:35Z</time>
      </trkpt>
      <trkpt lat="27.759797267333" lon="-15.585144681891">
        <ele>49.2</ele>
        <time>2017-03-24T13:31:43Z</time>
      </trkpt>
      <trkpt lat="27.759873039709" lon="-15.585329754243">
        <ele>47.4</ele>
        <time>2017-03-24T13:31:58Z</time>
      </trkpt>
      <trkpt lat="27.759933054113" lon="-15.585537541544">
        <ele>45.2</ele>
        <time>2017-03-24T13:32:14Z</time>
      </trkpt>
      <trkpt lat="27.759936742149" lon="-15.585739712972">
        <ele>45.6</ele>
        <time>2017-03-24T13:32:27Z</time>
      </trkpt>
      <trkpt lat="27.759920313625" lon="-15.58593685526">
        <ele>46</ele>
        <time>2017-03-24T13:32:39Z</time>
      </trkpt>
      <trkpt lat="27.759886869844" lon="-15.586339857012">
        <ele>49.4</ele>
        <time>2017-03-24T13:33:13Z</time>
      </trkpt>
      <trkpt lat="27.759899945608" lon="-15.58637690501">
        <ele>48.2</ele>
        <time>2017-03-24T13:33:15Z</time>
      </trkpt>
      <trkpt lat="27.760303031179" lon="-15.586562899371">
        <ele>35.2</ele>
        <time>2017-03-24T13:33:48Z</time>
      </trkpt>
      <trkpt lat="27.760458431605" lon="-15.586674630098">
        <ele>34.2</ele>
        <time>2017-03-24T13:34:02Z</time>
      </trkpt>
      <trkpt lat="27.76058290282" lon="-15.586829611429">
        <ele>33</ele>
        <time>2017-03-24T13:34:16Z</time>
      </trkpt>
      <trkpt lat="27.760684407629" lon="-15.587004625501">
        <ele>37.6</ele>
        <time>2017-03-24T13:34:29Z</time>
      </trkpt>
      <trkpt lat="27.760753558304" lon="-15.587208640947">
        <ele>40.6</ele>
        <time>2017-03-24T13:34:44Z</time>
      </trkpt>
      <trkpt lat="27.760827738119" lon="-15.587401676104">
        <ele>38</ele>
        <time>2017-03-24T13:34:58Z</time>
      </trkpt>
      <trkpt lat="27.760875850225" lon="-15.587614157269">
        <ele>35.2</ele>
        <time>2017-03-24T13:35:12Z</time>
      </trkpt>
      <trkpt lat="27.760882807202" lon="-15.587838876008">
        <ele>35.2</ele>
        <time>2017-03-24T13:35:26Z</time>
      </trkpt>
      <trkpt lat="27.760903175219" lon="-15.587955887332">
        <ele>35.2</ele>
        <time>2017-03-24T13:35:36Z</time>
      </trkpt>
      <trkpt lat="27.760883310116" lon="-15.588163674633">
        <ele>34.4</ele>
        <time>2017-03-24T13:35:50Z</time>
      </trkpt>
      <trkpt lat="27.760832767259" lon="-15.588385124431">
        <ele>36</ele>
        <time>2017-03-24T13:36:03Z</time>
      </trkpt>
      <trkpt lat="27.760804939351" lon="-15.588593666103">
        <ele>38.2</ele>
        <time>2017-03-24T13:36:17Z</time>
      </trkpt>
      <trkpt lat="27.760758252168" lon="-15.588794747884">
        <ele>43.2</ele>
        <time>2017-03-24T13:36:30Z</time>
      </trkpt>
      <trkpt lat="27.760770154466" lon="-15.588838585221">
        <ele>42</ele>
        <time>2017-03-24T13:36:33Z</time>
      </trkpt>
      <trkpt lat="27.760940139398" lon="-15.588881919644">
        <ele>37.6</ele>
        <time>2017-03-24T13:36:47Z</time>
      </trkpt>
      <trkpt lat="27.760944749443" lon="-15.588919302918">
        <ele>41.2</ele>
        <time>2017-03-24T13:36:50Z</time>
      </trkpt>
      <trkpt lat="27.760931757498" lon="-15.589125581477">
        <ele>41.2</ele>
        <time>2017-03-24T13:37:05Z</time>
      </trkpt>
      <trkpt lat="27.760924381426" lon="-15.589349462026">
        <ele>37</ele>
        <time>2017-03-24T13:37:19Z</time>
      </trkpt>
      <trkpt lat="27.760878029519" lon="-15.589548867427">
        <ele>39.6</ele>
        <time>2017-03-24T13:37:33Z</time>
      </trkpt>
      <trkpt lat="27.760847267946" lon="-15.589751374131">
        <ele>44.6</ele>
        <time>2017-03-24T13:37:47Z</time>
      </trkpt>
      <trkpt lat="27.760798736745" lon="-15.589953797016">
        <ele>46.4</ele>
        <time>2017-03-24T13:38:01Z</time>
      </trkpt>
      <trkpt lat="27.760769651552" lon="-15.590159488842">
        <ele>45.2</ele>
        <time>2017-03-24T13:38:15Z</time>
      </trkpt>
      <trkpt lat="27.760727658233" lon="-15.590499877801">
        <ele>47</ele>
        <time>2017-03-24T13:38:37Z</time>
      </trkpt>
      <trkpt lat="27.760822038427" lon="-15.590610937976">
        <ele>42.2</ele>
        <time>2017-03-24T13:38:47Z</time>
      </trkpt>
      <trkpt lat="27.760929578204" lon="-15.590771870456">
        <ele>39.8</ele>
        <time>2017-03-24T13:39:01Z</time>
      </trkpt>
      <trkpt lat="27.760917508268" lon="-15.590973203694">
        <ele>42.8</ele>
        <time>2017-03-24T13:39:16Z</time>
      </trkpt>
      <trkpt lat="27.760889596541" lon="-15.591180655719">
        <ele>43.4</ele>
        <time>2017-03-24T13:39:30Z</time>
      </trkpt>
      <trkpt lat="27.760858332054" lon="-15.591392382513">
        <ele>42</ele>
        <time>2017-03-24T13:39:43Z</time>
      </trkpt>
      <trkpt lat="27.760811812509" lon="-15.591592626104">
        <ele>42.6</ele>
        <time>2017-03-24T13:39:56Z</time>
      </trkpt>
      <trkpt lat="27.760761269652" lon="-15.591795132808">
        <ele>45.4</ele>
        <time>2017-03-24T13:40:11Z</time>
      </trkpt>
      <trkpt lat="27.760746852784" lon="-15.592002668652">
        <ele>44.8</ele>
        <time>2017-03-24T13:40:24Z</time>
      </trkpt>
      <trkpt lat="27.760767472258" lon="-15.592212551428">
        <ele>43.2</ele>
        <time>2017-03-24T13:40:38Z</time>
      </trkpt>
      <trkpt lat="27.760784738972" lon="-15.592427379525">
        <ele>41</ele>
        <time>2017-03-24T13:40:51Z</time>
      </trkpt>
      <trkpt lat="27.760883058659" lon="-15.592555874052">
        <ele>35</ele>
        <time>2017-03-24T13:41:03Z</time>
      </trkpt>
      <trkpt lat="27.760893452215" lon="-15.592590994213">
        <ele>34</ele>
        <time>2017-03-24T13:41:06Z</time>
      </trkpt>
      <trkpt lat="27.760934523525" lon="-15.592801044627">
        <ele>33.8</ele>
        <time>2017-03-24T13:41:18Z</time>
      </trkpt>
      <trkpt lat="27.761005266761" lon="-15.592938675425">
        <ele>37.8</ele>
        <time>2017-03-24T13:41:30Z</time>
      </trkpt>
      <trkpt lat="27.76113527003" lon="-15.593080329535">
        <ele>34.8</ele>
        <time>2017-03-24T13:41:43Z</time>
      </trkpt>
      <trkpt lat="27.761313972138" lon="-15.593128944555">
        <ele>36.6</ele>
        <time>2017-03-24T13:41:58Z</time>
      </trkpt>
      <trkpt lat="27.761489237667" lon="-15.593189880968">
        <ele>35.4</ele>
        <time>2017-03-24T13:42:14Z</time>
      </trkpt>
      <trkpt lat="27.761662072445" lon="-15.593140176301">
        <ele>38.6</ele>
        <time>2017-03-24T13:42:26Z</time>
      </trkpt>
      <trkpt lat="27.761839936363" lon="-15.593064739201">
        <ele>38.4</ele>
        <time>2017-03-24T13:42:40Z</time>
      </trkpt>
      <trkpt lat="27.762027607104" lon="-15.59305895569">
        <ele>33.6</ele>
        <time>2017-03-24T13:42:52Z</time>
      </trkpt>
      <trkpt lat="27.762220642261" lon="-15.593068091961">
        <ele>39.4</ele>
        <time>2017-03-24T13:43:06Z</time>
      </trkpt>
      <trkpt lat="27.762402864767" lon="-15.593040934605">
        <ele>42.2</ele>
        <time>2017-03-24T13:43:23Z</time>
      </trkpt>
      <trkpt lat="27.762586428377" lon="-15.593043365356">
        <ele>42.6</ele>
        <time>2017-03-24T13:43:35Z</time>
      </trkpt>
      <trkpt lat="27.762775859317" lon="-15.593033977628">
        <ele>43.6</ele>
        <time>2017-03-24T13:43:50Z</time>
      </trkpt>
      <trkpt lat="27.762967301913" lon="-15.593006568815">
        <ele>46</ele>
        <time>2017-03-24T13:44:04Z</time>
      </trkpt>
      <trkpt lat="27.763149692057" lon="-15.592992319585">
        <ele>46.2</ele>
        <time>2017-03-24T13:44:18Z</time>
      </trkpt>
      <trkpt lat="27.763290675615" lon="-15.592965162229">
        <ele>44.2</ele>
        <time>2017-03-24T13:44:28Z</time>
      </trkpt>
      <trkpt lat="27.763460995823" lon="-15.5930413537">
        <ele>40.2</ele>
        <time>2017-03-24T13:44:43Z</time>
      </trkpt>
      <trkpt lat="27.763615306602" lon="-15.59315115659">
        <ele>39.6</ele>
        <time>2017-03-24T13:44:57Z</time>
      </trkpt>
      <trkpt lat="27.763764755879" lon="-15.593264228421">
        <ele>36.4</ele>
        <time>2017-03-24T13:45:11Z</time>
      </trkpt>
      <trkpt lat="27.763938093571" lon="-15.593318040219">
        <ele>37</ele>
        <time>2017-03-24T13:45:24Z</time>
      </trkpt>
      <trkpt lat="27.764035491249" lon="-15.593316447658">
        <ele>40.2</ele>
        <time>2017-03-24T13:45:33Z</time>
      </trkpt>
    </trkseg>
  </trk>
</gpx>